createdAt,value
2019-06-27T00:00:11.315Z,30.50
2019-06-27T00:02:40.496Z,30.00
2019-06-27T00:05:09.714Z,28.00
2019-06-27T00:07:39.148Z,26.75
2019-06-27T00:10:09.394Z,28.75
2019-06-27T00:12:40.410Z,29.00
2019-06-27T00:15:09.937Z,28.25
2019-06-27T00:17:38.977Z,27.75
2019-06-27T00:20:08.269Z,26.50
2019-06-27T00:22:40.874Z,25.00
2019-06-27T00:25:08.411Z,20.50
2019-06-27T00:27:37.547Z,24.25
2019-06-27T00:30:07.221Z,27.00
2019-06-27T00:32:36.328Z,23.75
2019-06-27T00:35:06.105Z,26.00
2019-06-27T00:37:35.209Z,22.50
2019-06-27T00:40:04.958Z,20.75
2019-06-27T00:42:34.024Z,27.50
2019-06-27T00:45:03.268Z,23.00
2019-06-27T00:47:32.701Z,32.25
2019-06-27T00:50:01.846Z,23.50
2019-06-27T00:52:31.039Z,23.00
2019-06-27T00:55:00.171Z,27.25
2019-06-27T00:57:29.364Z,26.75
2019-06-27T00:59:58.559Z,22.75
2019-06-27T01:02:27.675Z,24.25
2019-06-27T01:04:56.903Z,32.00
2019-06-27T01:07:26.104Z,27.50
2019-06-27T01:09:55.283Z,32.50
2019-06-27T01:12:24.446Z,23.25
2019-06-27T01:14:53.588Z,27.50
2019-06-27T01:17:22.810Z,23.00
2019-06-27T01:19:52.000Z,28.75
2019-06-27T01:22:21.119Z,26.25
2019-06-27T01:24:51.044Z,28.00
2019-06-27T01:27:29.509Z,30.25
2019-06-27T01:29:53.359Z,32.50
2019-06-27T01:32:22.549Z,31.75
2019-06-27T01:34:51.771Z,35.25
2019-06-27T01:37:21.310Z,25.25
2019-06-27T01:39:50.635Z,30.75
2019-06-27T01:42:19.734Z,26.50
2019-06-27T01:44:56.348Z,31.75
2019-06-27T01:47:36.081Z,28.75
2019-06-27T01:50:05.657Z,32.75
2019-06-27T01:52:57.242Z,28.75
2019-06-27T01:55:40.643Z,25.50
2019-06-27T01:58:12.359Z,30.50
2019-06-27T02:00:43.830Z,24.00
2019-06-27T02:03:19.233Z,28.75
2019-06-27T02:05:50.712Z,27.25
2019-06-27T02:08:26.556Z,25.00
2019-06-27T02:11:28.031Z,26.50
2019-06-27T02:13:59.531Z,27.75
2019-06-27T02:16:44.512Z,22.75
2019-06-27T02:19:13.644Z,31.75
2019-06-27T02:21:43.919Z,28.00
2019-06-27T02:24:13.152Z,27.25
2019-06-27T02:26:42.260Z,34.00
2019-06-27T02:29:13.967Z,27.25
2019-06-27T02:31:43.167Z,28.75
2019-06-27T02:34:14.725Z,27.75
2019-06-27T02:36:43.919Z,25.00
2019-06-27T02:39:13.040Z,33.75
2019-06-27T02:41:42.225Z,23.75
2019-06-27T02:44:11.421Z,26.25
2019-06-27T02:46:40.622Z,29.50
2019-06-27T02:49:09.838Z,27.25
2019-06-27T02:51:40.305Z,26.50
2019-06-27T02:54:09.539Z,32.75
2019-06-27T02:56:38.692Z,25.00
2019-06-27T02:59:07.886Z,32.75
2019-06-27T03:01:37.079Z,32.75
2019-06-27T03:04:07.436Z,28.00
2019-06-27T03:06:37.733Z,29.75
2019-06-27T03:09:07.367Z,34.50
2019-06-27T03:11:37.058Z,28.75
2019-06-27T03:14:06.270Z,23.75
2019-06-27T03:16:35.384Z,24.00
2019-06-27T03:19:04.521Z,28.25
2019-06-27T03:21:34.557Z,32.25
2019-06-27T03:24:04.141Z,24.50
2019-06-27T03:26:33.394Z,27.00
2019-06-27T03:29:02.585Z,25.25
2019-06-27T03:31:32.592Z,37.75
2019-06-27T03:34:02.214Z,26.00
2019-06-27T03:36:31.462Z,27.25
2019-06-27T03:39:01.155Z,30.50
2019-06-27T03:41:35.503Z,31.00
2019-06-27T03:44:10.184Z,32.00
2019-06-27T03:46:40.251Z,31.75
2019-06-27T03:49:10.129Z,34.00
2019-06-27T03:51:41.069Z,29.00
2019-06-27T03:54:10.532Z,27.00
2019-06-27T03:57:54.833Z,24.50
2019-06-27T04:00:30.769Z,26.00
2019-06-27T04:03:00.113Z,29.50
2019-06-27T04:05:29.307Z,31.50
2019-06-27T04:07:58.523Z,31.25
2019-06-27T04:10:27.740Z,28.00
2019-06-27T04:12:58.237Z,26.25
2019-06-27T04:15:29.275Z,28.75
2019-06-27T04:17:59.842Z,32.00
2019-06-27T04:20:29.058Z,32.75
2019-06-27T04:22:58.262Z,28.75
2019-06-27T04:25:27.743Z,30.25
2019-06-27T04:28:00.165Z,22.00
2019-06-27T04:30:29.323Z,25.25
2019-06-27T04:32:58.466Z,25.50
2019-06-27T04:35:27.649Z,29.00
2019-06-27T04:37:56.985Z,28.50
2019-06-27T04:40:26.489Z,26.00
2019-06-27T04:42:55.740Z,23.00
2019-06-27T04:45:25.132Z,21.75
2019-06-27T04:47:57.319Z,19.25
2019-06-27T04:50:26.371Z,20.00
2019-06-27T04:52:59.768Z,26.00
2019-06-27T04:55:28.890Z,29.00
2019-06-27T04:57:57.943Z,27.00
2019-06-27T05:00:30.011Z,24.00
2019-06-27T05:02:59.740Z,26.25
2019-06-27T05:05:28.854Z,24.50
2019-06-27T05:07:58.048Z,32.25
2019-06-27T05:10:27.624Z,24.00
2019-06-27T05:12:57.513Z,24.00
2019-06-27T05:15:27.331Z,25.50
2019-06-27T05:17:56.540Z,19.50
2019-06-27T05:20:25.668Z,29.00
2019-06-27T05:22:54.780Z,23.25
2019-06-27T05:25:23.907Z,23.75
2019-06-27T05:27:53.109Z,21.00
2019-06-27T05:30:22.354Z,23.25
2019-06-27T05:32:51.554Z,26.00
2019-06-27T05:35:20.784Z,25.00
2019-06-27T05:37:50.018Z,29.00
2019-06-27T05:40:19.494Z,24.50
2019-06-27T05:42:48.685Z,22.00
2019-06-27T05:45:18.617Z,26.50
2019-06-27T05:47:47.687Z,26.25
2019-06-27T05:50:17.292Z,25.00
2019-06-27T05:52:46.479Z,23.75
2019-06-27T05:55:15.689Z,28.25
2019-06-27T05:57:44.730Z,22.00
2019-06-27T06:00:27.385Z,28.75
2019-06-27T06:02:45.408Z,24.00
2019-06-27T06:05:14.636Z,29.25
2019-06-27T06:07:43.747Z,29.00
2019-06-27T06:10:13.066Z,22.50
2019-06-27T06:12:42.262Z,28.25
2019-06-27T06:15:11.550Z,27.00
2019-06-27T06:17:40.745Z,26.75
2019-06-27T06:20:10.678Z,29.50
2019-06-27T06:22:39.864Z,22.00
2019-06-27T06:25:09.074Z,29.75
2019-06-27T06:27:38.961Z,30.00
2019-06-27T06:30:08.651Z,37.50
2019-06-27T06:32:37.858Z,24.50
2019-06-27T06:35:07.634Z,22.00
2019-06-27T06:37:36.834Z,22.75
2019-06-27T06:40:06.051Z,23.00
2019-06-27T06:42:35.240Z,31.25
2019-06-27T06:45:04.684Z,25.00
2019-06-27T06:47:33.873Z,28.75
2019-06-27T06:50:03.086Z,26.75
2019-06-27T06:52:32.281Z,27.75
2019-06-27T06:55:01.464Z,31.50
2019-06-27T06:57:31.043Z,29.25
2019-06-27T07:00:00.088Z,20.50
2019-06-27T07:02:29.243Z,17.75
2019-06-27T07:04:58.478Z,20.75
2019-06-27T07:07:27.680Z,23.50
2019-06-27T07:09:56.899Z,21.25
2019-06-27T07:12:26.018Z,24.25
2019-06-27T07:14:55.209Z,25.50
2019-06-27T07:17:24.408Z,25.75
2019-06-27T07:19:57.316Z,21.50
2019-06-27T07:22:24.505Z,23.00
2019-06-27T07:24:53.697Z,24.00
2019-06-27T07:27:22.885Z,24.50
2019-06-27T07:29:52.134Z,20.00
2019-06-27T07:32:21.359Z,23.00
2019-06-27T07:34:50.524Z,24.50
2019-06-27T07:37:19.720Z,21.50
2019-06-27T07:39:48.929Z,20.25
2019-06-27T07:42:18.132Z,25.25
2019-06-27T07:44:47.277Z,28.00
2019-06-27T07:47:16.468Z,22.50
2019-06-27T07:49:45.837Z,22.75
2019-06-27T07:52:15.024Z,24.75
2019-06-27T07:54:44.235Z,23.00
2019-06-27T07:57:13.402Z,22.25
2019-06-27T07:59:42.545Z,23.50
2019-06-27T08:02:11.742Z,22.25
2019-06-27T08:04:40.784Z,22.25
2019-06-27T08:07:09.978Z,20.50
2019-06-27T08:09:39.152Z,21.75
2019-06-27T08:12:08.607Z,18.00
2019-06-27T08:14:37.787Z,19.00
2019-06-27T08:17:06.993Z,18.00
2019-06-27T08:19:36.016Z,19.50
2019-06-27T08:22:05.245Z,18.75
2019-06-27T08:24:34.677Z,18.25
2019-06-27T08:27:03.998Z,19.00
2019-06-27T08:29:33.206Z,19.75
2019-06-27T08:32:02.409Z,27.75
2019-06-27T08:34:31.607Z,22.00
2019-06-27T08:37:00.716Z,21.75
2019-06-27T08:39:29.879Z,22.75
2019-06-27T08:41:58.968Z,22.75
2019-06-27T08:44:28.112Z,21.75
2019-06-27T08:46:57.287Z,19.00
2019-06-27T08:49:26.336Z,21.50
2019-06-27T08:51:55.524Z,22.75
2019-06-27T08:54:24.573Z,20.00
2019-06-27T08:56:53.638Z,21.25
2019-06-27T08:59:22.833Z,22.75
2019-06-27T09:02:07.279Z,18.25
2019-06-27T09:04:22.871Z,20.00
2019-06-27T09:06:51.999Z,22.75
2019-06-27T09:09:21.191Z,22.50
2019-06-27T09:11:50.410Z,25.25
2019-06-27T09:14:19.517Z,18.25
2019-06-27T09:16:48.821Z,21.75
2019-06-27T09:19:17.983Z,20.50
2019-06-27T09:21:47.178Z,21.00
2019-06-27T09:24:16.383Z,23.50
2019-06-27T09:26:45.614Z,23.25
2019-06-27T09:29:14.758Z,23.50
2019-06-27T09:31:44.092Z,23.00
2019-06-27T09:34:13.316Z,22.25
2019-06-27T09:36:42.491Z,22.75
2019-06-27T09:39:11.710Z,25.00
2019-06-27T09:41:40.893Z,24.75
2019-06-27T09:44:10.113Z,23.50
2019-06-27T09:46:39.311Z,23.00
2019-06-27T09:49:08.494Z,25.50
2019-06-27T09:51:37.647Z,19.00
2019-06-27T09:54:06.825Z,24.50
2019-06-27T09:56:36.048Z,21.75
2019-06-27T09:59:05.158Z,22.50
2019-06-27T10:01:34.351Z,18.75
2019-06-27T10:04:03.546Z,26.75
2019-06-27T10:06:32.757Z,24.50
2019-06-27T10:09:01.882Z,23.25
2019-06-27T10:11:31.219Z,22.50
2019-06-27T10:14:00.282Z,24.50
2019-06-27T10:16:29.383Z,26.50
2019-06-27T10:18:58.558Z,20.25
2019-06-27T10:21:27.871Z,22.00
2019-06-27T10:23:57.084Z,25.00
2019-06-27T10:26:26.336Z,26.75
2019-06-27T10:28:55.553Z,20.00
2019-06-27T10:31:24.679Z,25.25
2019-06-27T10:33:53.922Z,25.00
2019-06-27T10:36:23.137Z,23.50
2019-06-27T10:38:52.271Z,19.00
2019-06-27T10:41:21.464Z,21.00
2019-06-27T10:43:50.655Z,20.50
2019-06-27T10:46:19.867Z,19.75
2019-06-27T10:48:48.969Z,20.50
2019-06-27T10:51:18.214Z,20.25
2019-06-27T10:53:47.347Z,22.50
2019-06-27T10:56:16.510Z,25.75
2019-06-27T10:58:45.563Z,20.25
2019-06-27T11:01:14.759Z,18.50
2019-06-27T11:03:44.053Z,24.00
2019-06-27T11:06:13.186Z,22.00
2019-06-27T11:08:42.282Z,21.75
2019-06-27T11:11:11.497Z,19.50
2019-06-27T11:13:40.754Z,25.25
2019-06-27T11:16:10.055Z,23.75
2019-06-27T11:18:39.278Z,19.75
2019-06-27T11:21:08.497Z,20.75
2019-06-27T11:23:37.593Z,21.75
2019-06-27T11:26:09.396Z,20.75
2019-06-27T11:28:37.745Z,21.25
2019-06-27T11:31:06.852Z,19.00
2019-06-27T11:33:36.023Z,22.25
2019-06-27T11:36:05.209Z,18.75
2019-06-27T11:38:34.316Z,22.25
2019-06-27T11:41:03.439Z,22.00
2019-06-27T11:43:32.565Z,21.25
2019-06-27T11:46:01.758Z,24.00
2019-06-27T11:48:30.908Z,24.00
2019-06-27T11:50:59.951Z,19.00
2019-06-27T11:53:29.149Z,21.75
2019-06-27T11:55:58.542Z,20.25
2019-06-27T11:58:27.746Z,20.50
2019-06-27T12:00:56.963Z,19.50
2019-06-27T12:03:26.035Z,21.50
2019-06-27T12:05:55.144Z,23.75
2019-06-27T12:08:24.192Z,19.50
2019-06-27T12:10:53.385Z,19.50
2019-06-27T12:13:22.553Z,19.50
2019-06-27T12:15:51.842Z,22.25
2019-06-27T12:18:20.979Z,17.50
2019-06-27T12:20:50.183Z,19.75
2019-06-27T12:23:19.291Z,17.75
2019-06-27T12:25:48.501Z,18.25
2019-06-27T12:28:17.620Z,21.25
2019-06-27T12:30:46.765Z,19.25
2019-06-27T12:33:16.049Z,22.50
2019-06-27T12:35:45.179Z,21.75
2019-06-27T12:38:14.771Z,19.75
2019-06-27T12:40:43.885Z,19.25
2019-06-27T12:43:14.503Z,19.75
2019-06-27T12:45:43.970Z,20.00
2019-06-27T12:48:13.095Z,16.00
2019-06-27T12:50:42.215Z,23.00
2019-06-27T12:53:11.405Z,24.00
2019-06-27T12:55:40.556Z,19.75
2019-06-27T12:58:09.682Z,24.00
2019-06-27T13:00:39.190Z,19.00
2019-06-27T13:03:08.376Z,23.00
2019-06-27T13:05:37.505Z,23.50
2019-06-27T13:08:06.634Z,15.00
2019-06-27T13:10:36.250Z,19.25
2019-06-27T13:13:05.957Z,20.50
2019-06-27T13:15:35.286Z,22.75
2019-06-27T13:18:04.773Z,18.50
2019-06-27T13:20:34.419Z,19.75
2019-06-27T13:23:03.538Z,18.75
2019-06-27T13:25:34.375Z,20.00
2019-06-27T13:28:03.746Z,15.00
2019-06-27T13:30:33.271Z,17.75
2019-06-27T13:33:02.397Z,18.25
2019-06-27T13:35:31.774Z,18.25
2019-06-27T13:38:00.834Z,17.75
2019-06-27T13:40:30.118Z,16.50
2019-06-27T13:42:59.347Z,23.75
2019-06-27T13:45:28.561Z,16.50
2019-06-27T13:47:57.823Z,20.25
2019-06-27T13:50:27.002Z,17.00
2019-06-27T13:52:56.199Z,15.00
2019-06-27T13:55:25.389Z,17.00
2019-06-27T13:57:57.480Z,17.50
2019-06-27T14:00:35.216Z,17.75
2019-06-27T14:03:16.751Z,17.00
2019-06-27T14:05:46.031Z,17.50
2019-06-27T14:08:15.318Z,17.00
2019-06-27T14:10:44.522Z,18.50
2019-06-27T14:13:13.707Z,16.00
2019-06-27T14:15:42.832Z,19.50
2019-06-27T14:18:12.012Z,24.00
2019-06-27T14:20:41.324Z,18.50
2019-06-27T14:23:19.024Z,16.50
2019-06-27T14:26:03.016Z,19.25
2019-06-27T14:28:37.570Z,17.75
2019-06-27T14:31:06.816Z,16.75
2019-06-27T14:33:36.052Z,14.50
2019-06-27T14:36:06.373Z,15.00
2019-06-27T14:38:35.713Z,20.50
2019-06-27T14:41:05.177Z,16.50
2019-06-27T14:43:37.865Z,18.00
2019-06-27T14:46:05.886Z,18.00
2019-06-27T14:48:34.959Z,17.00
2019-06-27T14:51:17.149Z,15.50
2019-06-27T14:54:12.854Z,18.75
2019-06-27T14:57:08.409Z,19.75
2019-06-27T14:59:37.553Z,16.25
2019-06-27T15:02:07.476Z,19.00
2019-06-27T15:04:36.693Z,18.50
2019-06-27T15:07:06.060Z,19.00
2019-06-27T15:09:35.285Z,19.25
2019-06-27T15:12:04.475Z,20.75
2019-06-27T15:14:33.691Z,17.25
2019-06-27T15:17:06.554Z,19.00
2019-06-27T15:19:46.167Z,18.75
2019-06-27T15:22:15.344Z,18.25
2019-06-27T15:24:44.622Z,17.00
2019-06-27T15:27:14.454Z,20.50
2019-06-27T15:29:43.718Z,20.25
2019-06-27T15:32:12.889Z,19.25
2019-06-27T15:34:44.716Z,17.00
2019-06-27T15:37:13.789Z,20.25
2019-06-27T15:39:43.028Z,21.75
2019-06-27T15:42:12.160Z,23.50
2019-06-27T15:44:41.374Z,17.25
2019-06-27T15:47:10.629Z,16.75
2019-06-27T15:49:39.757Z,17.75
2019-06-27T15:52:08.950Z,18.75
2019-06-27T15:54:38.091Z,19.00
2019-06-27T15:57:07.195Z,17.00
2019-06-27T15:59:36.311Z,18.50
2019-06-27T16:02:05.507Z,19.50
2019-06-27T16:04:34.873Z,18.75
2019-06-27T16:07:04.058Z,19.75
2019-06-27T16:09:33.372Z,16.75
2019-06-27T16:12:02.660Z,16.00
2019-06-27T16:14:31.956Z,22.00
2019-06-27T16:17:04.356Z,19.50
2019-06-27T16:19:33.710Z,17.75
2019-06-27T16:22:03.106Z,20.75
2019-06-27T16:24:32.347Z,20.75
2019-06-27T16:27:01.817Z,22.75
2019-06-27T16:29:31.109Z,19.75
2019-06-27T16:32:00.446Z,23.50
2019-06-27T16:34:29.737Z,21.50
2019-06-27T16:36:59.923Z,21.50
2019-06-27T16:39:29.986Z,24.50
2019-06-27T16:41:59.159Z,21.25
2019-06-27T16:44:28.309Z,22.00
2019-06-27T16:46:57.501Z,19.75
2019-06-27T16:49:26.626Z,26.25
2019-06-27T16:51:55.851Z,22.75
2019-06-27T16:54:25.007Z,18.75
2019-06-27T16:56:54.258Z,18.75
2019-06-27T16:59:23.359Z,27.00
2019-06-27T17:01:52.674Z,23.25
2019-06-27T17:04:22.058Z,22.25
2019-06-27T17:06:51.224Z,20.75
2019-06-27T17:09:20.537Z,20.50
2019-06-27T17:11:49.728Z,21.75
2019-06-27T17:14:20.034Z,26.50
2019-06-27T17:16:49.493Z,25.75
2019-06-27T17:19:18.727Z,21.25
2019-06-27T17:21:47.927Z,21.75
2019-06-27T17:24:17.134Z,20.50
2019-06-27T17:26:46.381Z,21.75
2019-06-27T17:29:15.550Z,22.75
2019-06-27T17:31:44.727Z,19.00
2019-06-27T17:34:14.371Z,19.25
2019-06-27T17:36:56.644Z,21.00
2019-06-27T17:39:14.454Z,20.50
2019-06-27T17:41:43.578Z,22.00
2019-06-27T17:44:12.728Z,25.50
2019-06-27T17:46:41.924Z,26.50
2019-06-27T17:49:11.115Z,22.50
2019-06-27T17:51:40.387Z,22.75
2019-06-27T17:54:09.652Z,20.50
2019-06-27T17:56:47.654Z,31.75
2019-06-27T17:59:20.539Z,20.50
2019-06-27T18:01:51.678Z,20.25
2019-06-27T18:04:20.823Z,21.00
2019-06-27T18:06:50.222Z,24.25
2019-06-27T18:09:19.567Z,26.25
2019-06-27T18:11:48.793Z,22.25
2019-06-27T18:14:17.984Z,22.25
2019-06-27T18:19:26.452Z,21.50
2019-06-27T18:21:55.709Z,24.25
2019-06-27T18:24:24.890Z,24.25
2019-06-27T18:26:54.203Z,25.25
2019-06-27T18:29:23.379Z,22.50
2019-06-27T18:31:52.584Z,23.75
2019-06-27T18:34:21.695Z,25.00
2019-06-27T18:36:50.906Z,23.25
2019-06-27T18:39:20.495Z,23.25
2019-06-27T18:41:49.703Z,25.00
2019-06-27T18:44:18.891Z,25.50
2019-06-27T18:46:48.084Z,20.50
2019-06-27T18:49:17.190Z,18.50
2019-06-27T18:51:46.322Z,21.50
2019-06-27T18:54:15.494Z,21.50
2019-06-27T18:56:44.703Z,22.50
2019-06-27T18:59:13.840Z,25.25
2019-06-27T19:01:43.041Z,22.25
2019-06-27T19:04:15.869Z,21.75
2019-06-27T19:06:45.245Z,20.00
2019-06-27T19:09:14.417Z,26.50
2019-06-27T19:11:43.628Z,23.25
2019-06-27T19:14:12.737Z,21.50
2019-06-27T19:16:41.939Z,23.25
2019-06-27T19:19:13.506Z,23.00
2019-06-27T19:21:49.894Z,23.25
2019-06-27T19:24:36.483Z,22.00
2019-06-27T19:27:05.697Z,21.75
2019-06-27T19:29:34.733Z,26.25
2019-06-27T19:32:03.944Z,22.25
2019-06-27T19:34:33.096Z,25.25
2019-06-27T19:37:02.125Z,19.75
2019-06-27T19:39:31.168Z,29.50
2019-06-27T19:42:00.808Z,22.50
2019-06-27T19:44:30.040Z,20.25
2019-06-27T19:46:59.160Z,30.25
2019-06-27T19:49:28.347Z,26.25
2019-06-27T19:51:57.527Z,25.00
2019-06-27T19:54:26.707Z,28.50
2019-06-27T19:56:55.841Z,22.50
2019-06-27T19:59:25.420Z,27.25
2019-06-27T20:01:54.740Z,27.00
2019-06-27T20:04:23.856Z,24.00
2019-06-27T20:06:53.047Z,24.00
2019-06-27T20:09:22.243Z,25.75
2019-06-27T20:11:51.427Z,24.00
2019-06-27T20:14:20.608Z,21.75
2019-06-27T20:16:49.797Z,22.75
2019-06-27T20:19:21.188Z,24.50
2019-06-27T20:21:50.387Z,20.00
2019-06-27T20:24:21.773Z,21.00
2019-06-27T20:26:50.446Z,23.75
2019-06-27T20:29:19.630Z,29.00
2019-06-27T20:31:48.824Z,22.25
2019-06-27T20:34:18.026Z,23.75
2019-06-27T20:36:47.245Z,21.50
2019-06-27T20:39:16.357Z,24.00
2019-06-27T20:41:45.482Z,32.75
2019-06-27T20:44:14.670Z,29.50
2019-06-27T20:46:43.705Z,26.00
2019-06-27T20:49:12.905Z,24.00
2019-06-27T20:51:42.348Z,22.50
2019-06-27T20:54:12.519Z,28.00
2019-06-27T20:56:41.708Z,25.00
2019-06-27T20:59:10.925Z,30.75
2019-06-27T21:01:39.951Z,24.75
2019-06-27T21:04:09.169Z,25.00
2019-06-27T21:06:38.245Z,23.50
2019-06-27T21:09:07.455Z,25.50
2019-06-27T21:11:36.708Z,24.25
2019-06-27T21:14:05.965Z,26.75
2019-06-27T21:16:35.151Z,25.50
2019-06-27T21:19:04.270Z,24.00
2019-06-27T21:21:33.649Z,23.00
2019-06-27T21:24:02.849Z,27.50
2019-06-27T21:26:31.982Z,25.75
2019-06-27T21:29:01.512Z,25.50
2019-06-27T21:31:30.662Z,30.00
2019-06-27T21:33:59.855Z,22.75
2019-06-27T21:36:29.064Z,27.50
2019-06-27T21:39:07.692Z,25.00
2019-06-27T21:41:29.094Z,31.75
2019-06-27T21:43:58.161Z,26.50
2019-06-27T21:46:27.371Z,27.50
2019-06-27T21:48:56.601Z,27.00
2019-06-27T21:51:25.746Z,27.00
2019-06-27T21:53:54.947Z,27.25
2019-06-27T21:56:24.055Z,27.00
2019-06-27T21:58:53.197Z,24.50
2019-06-27T22:01:22.584Z,25.25
2019-06-27T22:03:51.857Z,39.25
2019-06-27T22:06:21.059Z,25.50
2019-06-27T22:08:50.275Z,28.25
2019-06-27T22:11:19.479Z,29.25
2019-06-27T22:13:48.665Z,27.00
2019-06-27T22:16:17.880Z,30.25
2019-06-27T22:18:47.496Z,25.75
2019-06-27T22:21:16.742Z,28.00
2019-06-27T22:23:45.991Z,26.50
2019-06-27T22:26:15.229Z,33.50
2019-06-27T22:28:44.438Z,31.25
2019-06-27T22:31:13.660Z,31.50
2019-06-27T22:33:42.847Z,27.50
2019-06-27T22:36:12.098Z,31.75
2019-06-27T22:38:59.426Z,27.50
2019-06-27T22:41:46.215Z,30.25
2019-06-27T22:44:34.072Z,26.50
2019-06-27T22:47:25.667Z,36.00
2019-06-27T22:49:54.030Z,31.25
2019-06-27T22:52:37.754Z,27.50
2019-06-27T22:55:10.044Z,32.75
2019-06-27T22:57:39.248Z,27.25
2019-06-27T23:00:08.873Z,38.00
2019-06-27T23:02:38.062Z,30.25
2019-06-27T23:05:07.303Z,33.25
2019-06-27T23:07:36.365Z,34.00
2019-06-27T23:10:05.658Z,33.50
2019-06-27T23:12:34.892Z,32.00
2019-06-27T23:15:04.161Z,35.75
2019-06-27T23:17:33.375Z,25.75
2019-06-27T23:20:02.571Z,29.00
2019-06-27T23:22:31.710Z,29.50
2019-06-27T23:25:00.887Z,38.00
2019-06-27T23:27:29.989Z,28.25
2019-06-27T23:29:59.039Z,25.75
2019-06-27T23:32:28.240Z,34.25
2019-06-27T23:34:57.357Z,32.25
2019-06-27T23:37:26.490Z,27.00
2019-06-27T23:39:55.704Z,29.00
2019-06-27T23:42:24.737Z,42.75
2019-06-27T23:44:54.755Z,30.75
2019-06-27T23:47:23.876Z,33.50
2019-06-27T23:49:52.904Z,29.25
2019-06-27T23:52:22.145Z,32.25
2019-06-27T23:54:51.188Z,34.50
2019-06-27T23:57:20.620Z,31.75
2019-06-27T23:59:49.731Z,29.25
